sensor_id;sensor_type;location;lat;lon;timestamp;temperature;humidity
26964;DHT22;14521;48.148;-1.656;2024-01-27T00:01:23;18.50;90.80
26964;DHT22;14521;48.148;-1.656;2024-01-27T00:04:45;18.60;90.80
26964;DHT22;14521;48.148;-1.656;2024-01-27T00:08:08;18.60;90.80
26964;DHT22;14521;48.148;-1.656;2024-01-27T00:11:30;18.50;90.70
26964;DHT22;14521;48.148;-1.656;2024-01-27T00:14:53;18.50;90.70
26964;DHT22;14521;48.148;-1.656;2024-01-27T00:18:15;18.50;90.70
26964;DHT22;14521;48.148;-1.656;2024-01-27T00:21:38;18.50;90.70
26964;DHT22;14521;48.148;-1.656;2024-01-27T00:25:01;18.50;90.70
26964;DHT22;14521;48.148;-1.656;2024-01-27T00:28:23;18.50;90.60
26964;DHT22;14521;48.148;-1.656;2024-01-27T00:31:45;18.50;90.50
26964;DHT22;14521;48.148;-1.656;2024-01-27T00:35:08;18.50;90.60
26964;DHT22;14521;48.148;-1.656;2024-01-27T00:38:31;18.50;90.50
26964;DHT22;14521;48.148;-1.656;2024-01-27T00:41:53;18.40;90.40
26964;DHT22;14521;48.148;-1.656;2024-01-27T00:45:17;18.50;90.40
26964;DHT22;14521;48.148;-1.656;2024-01-27T00:48:39;18.50;90.40
26964;DHT22;14521;48.148;-1.656;2024-01-27T00:52:02;18.50;90.40
26964;DHT22;14521;48.148;-1.656;2024-01-27T00:55:24;18.50;90.30
26964;DHT22;14521;48.148;-1.656;2024-01-27T00:58:47;18.40;90.30
26964;DHT22;14521;48.148;-1.656;2024-01-27T01:02:09;18.40;90.60
26964;DHT22;14521;48.148;-1.656;2024-01-27T01:05:32;18.40;90.30
26964;DHT22;14521;48.148;-1.656;2024-01-27T01:08:54;18.40;90.30
26964;DHT22;14521;48.148;-1.656;2024-01-27T01:12:17;18.40;90.20
26964;DHT22;14521;48.148;-1.656;2024-01-27T01:15:39;18.40;90.20
26964;DHT22;14521;48.148;-1.656;2024-01-27T01:19:01;18.40;90.20
26964;DHT22;14521;48.148;-1.656;2024-01-27T01:22:24;18.40;90.10
26964;DHT22;14521;48.148;-1.656;2024-01-27T01:25:46;18.40;90.20
26964;DHT22;14521;48.148;-1.656;2024-01-27T01:29:08;18.40;90.10
26964;DHT22;14521;48.148;-1.656;2024-01-27T01:32:31;18.40;90.10
26964;DHT22;14521;48.148;-1.656;2024-01-27T01:35:53;18.40;90.10
26964;DHT22;14521;48.148;-1.656;2024-01-27T01:39:15;18.30;90.00
26964;DHT22;14521;48.148;-1.656;2024-01-27T01:42:38;18.30;90.00
26964;DHT22;14521;48.148;-1.656;2024-01-27T01:46:00;18.30;90.00
26964;DHT22;14521;48.148;-1.656;2024-01-27T01:49:22;18.40;90.00
26964;DHT22;14521;48.148;-1.656;2024-01-27T01:52:47;18.30;90.00
26964;DHT22;14521;48.148;-1.656;2024-01-27T01:56:13;18.30;90.00
26964;DHT22;14521;48.148;-1.656;2024-01-27T01:59:35;18.30;90.00
26964;DHT22;14521;48.148;-1.656;2024-01-27T02:03:03;18.30;89.90
26964;DHT22;14521;48.148;-1.656;2024-01-27T02:06:25;18.30;89.80
26964;DHT22;14521;48.148;-1.656;2024-01-27T02:09:48;18.30;89.80
26964;DHT22;14521;48.148;-1.656;2024-01-27T02:16:42;18.30;89.70
26964;DHT22;14521;48.148;-1.656;2024-01-27T02:20:05;18.30;89.70
26964;DHT22;14521;48.148;-1.656;2024-01-27T02:23:28;18.30;89.70
26964;DHT22;14521;48.148;-1.656;2024-01-27T02:26:51;18.30;89.70
26964;DHT22;14521;48.148;-1.656;2024-01-27T02:30:13;18.30;89.60
26964;DHT22;14521;48.148;-1.656;2024-01-27T02:33:35;18.30;89.40
26964;DHT22;14521;48.148;-1.656;2024-01-27T02:36:58;18.30;89.40
26964;DHT22;14521;48.148;-1.656;2024-01-27T02:40:20;18.20;89.30
26964;DHT22;14521;48.148;-1.656;2024-01-27T02:43:42;18.20;89.30
26964;DHT22;14521;48.148;-1.656;2024-01-27T02:47:05;18.20;89.20
26964;DHT22;14521;48.148;-1.656;2024-01-27T02:50:27;18.20;89.20
26964;DHT22;14521;48.148;-1.656;2024-01-27T02:53:49;18.20;89.20
26964;DHT22;14521;48.148;-1.656;2024-01-27T02:57:11;18.20;89.00
26964;DHT22;14521;48.148;-1.656;2024-01-27T03:00:35;18.20;89.00
26964;DHT22;14521;48.148;-1.656;2024-01-27T03:03:57;18.20;89.00
26964;DHT22;14521;48.148;-1.656;2024-01-27T03:07:20;18.20;88.90
26964;DHT22;14521;48.148;-1.656;2024-01-27T03:10:42;18.20;88.90
26964;DHT22;14521;48.148;-1.656;2024-01-27T03:14:04;18.20;88.80
26964;DHT22;14521;48.148;-1.656;2024-01-27T03:17:26;18.20;88.90
26964;DHT22;14521;48.148;-1.656;2024-01-27T03:20:49;18.20;88.90
26964;DHT22;14521;48.148;-1.656;2024-01-27T03:24:11;18.10;88.70
26964;DHT22;14521;48.148;-1.656;2024-01-27T03:27:34;18.20;88.80
26964;DHT22;14521;48.148;-1.656;2024-01-27T03:30:56;18.10;88.70
26964;DHT22;14521;48.148;-1.656;2024-01-27T03:34:19;18.10;88.60
26964;DHT22;14521;48.148;-1.656;2024-01-27T03:37:46;18.20;88.60
26964;DHT22;14521;48.148;-1.656;2024-01-27T03:41:09;18.20;88.50
26964;DHT22;14521;48.148;-1.656;2024-01-27T03:44:31;18.10;88.40
26964;DHT22;14521;48.148;-1.656;2024-01-27T03:47:53;18.10;88.30
26964;DHT22;14521;48.148;-1.656;2024-01-27T03:51:16;18.10;88.20
26964;DHT22;14521;48.148;-1.656;2024-01-27T03:54:38;18.10;88.20
26964;DHT22;14521;48.148;-1.656;2024-01-27T03:58:01;18.10;88.20
26964;DHT22;14521;48.148;-1.656;2024-01-27T04:01:23;18.10;88.40
26964;DHT22;14521;48.148;-1.656;2024-01-27T04:04:46;18.10;88.20
26964;DHT22;14521;48.148;-1.656;2024-01-27T04:08:08;18.10;88.20
26964;DHT22;14521;48.148;-1.656;2024-01-27T04:11:31;18.10;88.20
26964;DHT22;14521;48.148;-1.656;2024-01-27T04:14:53;18.00;88.10
26964;DHT22;14521;48.148;-1.656;2024-01-27T04:18:15;18.00;88.10
26964;DHT22;14521;48.148;-1.656;2024-01-27T04:21:38;18.00;88.10
26964;DHT22;14521;48.148;-1.656;2024-01-27T04:25:00;18.10;88.20
26964;DHT22;14521;48.148;-1.656;2024-01-27T04:28:23;18.00;88.00
26964;DHT22;14521;48.148;-1.656;2024-01-27T04:31:45;18.00;87.80
26964;DHT22;14521;48.148;-1.656;2024-01-27T04:35:11;18.10;87.90
26964;DHT22;14521;48.148;-1.656;2024-01-27T04:38:34;18.00;87.90
26964;DHT22;14521;48.148;-1.656;2024-01-27T04:41:56;18.00;87.80
26964;DHT22;14521;48.148;-1.656;2024-01-27T04:45:18;18.00;87.80
26964;DHT22;14521;48.148;-1.656;2024-01-27T04:48:40;18.00;87.80
26964;DHT22;14521;48.148;-1.656;2024-01-27T04:52:03;18.00;87.80
26964;DHT22;14521;48.148;-1.656;2024-01-27T04:55:25;18.00;87.70
26964;DHT22;14521;48.148;-1.656;2024-01-27T04:58:48;18.00;87.60
26964;DHT22;14521;48.148;-1.656;2024-01-27T05:02:11;18.00;87.50
26964;DHT22;14521;48.148;-1.656;2024-01-27T05:05:33;18.00;87.50
26964;DHT22;14521;48.148;-1.656;2024-01-27T05:08:58;18.00;87.80
26964;DHT22;14521;48.148;-1.656;2024-01-27T05:12:20;18.00;87.80
26964;DHT22;14521;48.148;-1.656;2024-01-27T05:15:42;18.00;88.00
26964;DHT22;14521;48.148;-1.656;2024-01-27T05:19:04;18.10;88.20
26964;DHT22;14521;48.148;-1.656;2024-01-27T05:22:27;18.10;89.00
26964;DHT22;14521;48.148;-1.656;2024-01-27T05:25:49;18.10;88.20
26964;DHT22;14521;48.148;-1.656;2024-01-27T05:29:11;18.20;88.00
26964;DHT22;14521;48.148;-1.656;2024-01-27T05:32:34;18.20;87.80
26964;DHT22;14521;48.148;-1.656;2024-01-27T05:35:56;18.30;87.60
26964;DHT22;14521;48.148;-1.656;2024-01-27T05:39:18;18.30;87.40
26964;DHT22;14521;48.148;-1.656;2024-01-27T05:42:41;18.30;87.20
26964;DHT22;14521;48.148;-1.656;2024-01-27T05:46:05;18.40;87.20
26964;DHT22;14521;48.148;-1.656;2024-01-27T05:49:27;18.40;87.10
26964;DHT22;14521;48.148;-1.656;2024-01-27T05:52:49;18.40;87.00
26964;DHT22;14521;48.148;-1.656;2024-01-27T05:56:12;18.40;87.00
26964;DHT22;14521;48.148;-1.656;2024-01-27T05:59:34;18.50;87.00
26964;DHT22;14521;48.148;-1.656;2024-01-27T06:02:57;18.50;86.90
26964;DHT22;14521;48.148;-1.656;2024-01-27T06:06:19;18.50;86.80
26964;DHT22;14521;48.148;-1.656;2024-01-27T06:09:41;18.50;87.00
26964;DHT22;14521;48.148;-1.656;2024-01-27T06:13:04;18.50;87.00
26964;DHT22;14521;48.148;-1.656;2024-01-27T06:16:27;18.60;87.00
26964;DHT22;14521;48.148;-1.656;2024-01-27T06:19:49;18.60;87.00
26964;DHT22;14521;48.148;-1.656;2024-01-27T06:23:12;18.60;87.00
26964;DHT22;14521;48.148;-1.656;2024-01-27T06:26:34;18.60;87.10
26964;DHT22;14521;48.148;-1.656;2024-01-27T06:29:56;18.60;87.10
26964;DHT22;14521;48.148;-1.656;2024-01-27T06:33:19;18.60;87.10
26964;DHT22;14521;48.148;-1.656;2024-01-27T06:36:41;18.70;87.00
26964;DHT22;14521;48.148;-1.656;2024-01-27T06:40:04;18.70;86.80
26964;DHT22;14521;48.148;-1.656;2024-01-27T06:43:26;18.70;86.70
26964;DHT22;14521;48.148;-1.656;2024-01-27T06:46:49;18.70;86.50
26964;DHT22;14521;48.148;-1.656;2024-01-27T06:50:12;18.70;86.70
26964;DHT22;14521;48.148;-1.656;2024-01-27T06:53:35;18.70;86.50
26964;DHT22;14521;48.148;-1.656;2024-01-27T06:56:59;18.70;86.50
26964;DHT22;14521;48.148;-1.656;2024-01-27T07:00:22;18.70;86.50
26964;DHT22;14521;48.148;-1.656;2024-01-27T07:03:45;18.70;86.50
26964;DHT22;14521;48.148;-1.656;2024-01-27T07:07:07;18.70;86.50
26964;DHT22;14521;48.148;-1.656;2024-01-27T07:10:30;18.70;86.50
26964;DHT22;14521;48.148;-1.656;2024-01-27T07:13:52;18.70;86.40
26964;DHT22;14521;48.148;-1.656;2024-01-27T07:17:14;18.60;83.80
26964;DHT22;14521;48.148;-1.656;2024-01-27T07:20:36;18.30;84.30
26964;DHT22;14521;48.148;-1.656;2024-01-27T07:23:59;18.00;85.50
26964;DHT22;14521;48.148;-1.656;2024-01-27T07:27:22;17.90;86.00
26964;DHT22;14521;48.148;-1.656;2024-01-27T07:30:45;17.80;86.40
26964;DHT22;14521;48.148;-1.656;2024-01-27T07:34:07;17.80;86.50
26964;DHT22;14521;48.148;-1.656;2024-01-27T07:37:29;17.80;86.50
26964;DHT22;14521;48.148;-1.656;2024-01-27T07:40:52;17.80;86.50
26964;DHT22;14521;48.148;-1.656;2024-01-27T07:44:14;17.80;86.60
26964;DHT22;14521;48.148;-1.656;2024-01-27T07:47:37;18.00;88.30
26964;DHT22;14521;48.148;-1.656;2024-01-27T07:50:59;18.10;86.10
26964;DHT22;14521;48.148;-1.656;2024-01-27T07:54:21;18.30;85.90
26964;DHT22;14521;48.148;-1.656;2024-01-27T07:57:45;18.50;85.50
26964;DHT22;14521;48.148;-1.656;2024-01-27T08:01:07;18.60;85.70
26964;DHT22;14521;48.148;-1.656;2024-01-27T08:04:29;18.60;85.80
26964;DHT22;14521;48.148;-1.656;2024-01-27T08:07:52;18.70;87.40
26964;DHT22;14521;48.148;-1.656;2024-01-27T08:11:15;18.70;87.30
26964;DHT22;14521;48.148;-1.656;2024-01-27T08:14:37;18.70;87.30
26964;DHT22;14521;48.148;-1.656;2024-01-27T08:18:00;18.70;86.20
26964;DHT22;14521;48.148;-1.656;2024-01-27T08:21:22;18.70;86.90
26964;DHT22;14521;48.148;-1.656;2024-01-27T08:24:45;18.70;86.30
26964;DHT22;14521;48.148;-1.656;2024-01-27T08:28:07;18.80;86.40
26964;DHT22;14521;48.148;-1.656;2024-01-27T08:31:31;18.80;86.60
26964;DHT22;14521;48.148;-1.656;2024-01-27T08:34:54;18.80;86.60
26964;DHT22;14521;48.148;-1.656;2024-01-27T08:38:16;18.80;86.30
26964;DHT22;14521;48.148;-1.656;2024-01-27T08:41:38;18.90;86.40
26964;DHT22;14521;48.148;-1.656;2024-01-27T08:45:01;18.90;86.10
26964;DHT22;14521;48.148;-1.656;2024-01-27T08:48:23;18.90;86.40
26964;DHT22;14521;48.148;-1.656;2024-01-27T08:51:46;18.90;86.00
26964;DHT22;14521;48.148;-1.656;2024-01-27T08:55:08;18.70;85.10
26964;DHT22;14521;48.148;-1.656;2024-01-27T08:58:31;18.60;85.50
26964;DHT22;14521;48.148;-1.656;2024-01-27T09:01:54;18.60;87.20
26964;DHT22;14521;48.148;-1.656;2024-01-27T09:05:16;18.60;87.00
26964;DHT22;14521;48.148;-1.656;2024-01-27T09:08:38;18.70;88.20
26964;DHT22;14521;48.148;-1.656;2024-01-27T09:12:00;18.60;87.80
26964;DHT22;14521;48.148;-1.656;2024-01-27T09:15:23;18.70;87.50
26964;DHT22;14521;48.148;-1.656;2024-01-27T09:18:45;18.70;86.70
26964;DHT22;14521;48.148;-1.656;2024-01-27T09:22:08;18.70;86.90
26964;DHT22;14521;48.148;-1.656;2024-01-27T09:25:30;18.70;87.40
26964;DHT22;14521;48.148;-1.656;2024-01-27T09:28:53;18.60;87.80
26964;DHT22;14521;48.148;-1.656;2024-01-27T09:32:18;18.60;87.50
26964;DHT22;14521;48.148;-1.656;2024-01-27T09:35:40;18.70;87.50
26964;DHT22;14521;48.148;-1.656;2024-01-27T09:39:03;18.60;87.40
26964;DHT22;14521;48.148;-1.656;2024-01-27T09:42:25;18.60;87.60
26964;DHT22;14521;48.148;-1.656;2024-01-27T09:45:48;18.60;87.70
26964;DHT22;14521;48.148;-1.656;2024-01-27T09:49:10;18.50;87.60
26964;DHT22;14521;48.148;-1.656;2024-01-27T09:52:35;18.50;87.50
26964;DHT22;14521;48.148;-1.656;2024-01-27T09:55:58;18.50;88.40
26964;DHT22;14521;48.148;-1.656;2024-01-27T09:59:20;18.50;87.70
26964;DHT22;14521;48.148;-1.656;2024-01-27T10:02:45;18.40;87.50
26964;DHT22;14521;48.148;-1.656;2024-01-27T10:06:09;18.40;87.50
26964;DHT22;14521;48.148;-1.656;2024-01-27T10:09:32;18.50;87.70
26964;DHT22;14521;48.148;-1.656;2024-01-27T10:12:56;18.40;87.50
26964;DHT22;14521;48.148;-1.656;2024-01-27T10:16:20;18.40;87.50
26964;DHT22;14521;48.148;-1.656;2024-01-27T10:19:43;18.40;87.50
26964;DHT22;14521;48.148;-1.656;2024-01-27T10:23:11;18.50;87.50
26964;DHT22;14521;48.148;-1.656;2024-01-27T10:26:34;18.40;87.40
26964;DHT22;14521;48.148;-1.656;2024-01-27T10:29:57;18.40;87.30
26964;DHT22;14521;48.148;-1.656;2024-01-27T10:33:19;18.40;87.40
26964;DHT22;14521;48.148;-1.656;2024-01-27T10:36:43;18.30;87.40
26964;DHT22;14521;48.148;-1.656;2024-01-27T10:40:09;18.40;87.30
26964;DHT22;14521;48.148;-1.656;2024-01-27T10:43:32;18.40;87.10
26964;DHT22;14521;48.148;-1.656;2024-01-27T10:47:01;18.30;87.10
26964;DHT22;14521;48.148;-1.656;2024-01-27T10:50:26;18.30;87.10
26964;DHT22;14521;48.148;-1.656;2024-01-27T10:53:49;18.30;87.00
26964;DHT22;14521;48.148;-1.656;2024-01-27T10:57:15;18.30;86.80
26964;DHT22;14521;48.148;-1.656;2024-01-27T11:00:39;18.30;86.70
26964;DHT22;14521;48.148;-1.656;2024-01-27T11:04:03;18.30;86.90
26964;DHT22;14521;48.148;-1.656;2024-01-27T11:07:30;18.30;86.70
26964;DHT22;14521;48.148;-1.656;2024-01-27T11:10:54;18.30;86.60
26964;DHT22;14521;48.148;-1.656;2024-01-27T11:14:16;18.40;86.60
26964;DHT22;14521;48.148;-1.656;2024-01-27T11:17:42;18.30;86.40
26964;DHT22;14521;48.148;-1.656;2024-01-27T11:21:04;18.40;87.00
26964;DHT22;14521;48.148;-1.656;2024-01-27T11:24:26;18.40;87.00
26964;DHT22;14521;48.148;-1.656;2024-01-27T11:27:49;18.40;87.10
26964;DHT22;14521;48.148;-1.656;2024-01-27T11:31:19;18.50;87.10
26964;DHT22;14521;48.148;-1.656;2024-01-27T11:34:45;18.40;87.00
26964;DHT22;14521;48.148;-1.656;2024-01-27T11:38:09;18.50;87.30
26964;DHT22;14521;48.148;-1.656;2024-01-27T11:41:31;18.40;87.10
26964;DHT22;14521;48.148;-1.656;2024-01-27T11:44:54;18.40;87.30
26964;DHT22;14521;48.148;-1.656;2024-01-27T11:48:16;18.40;87.30
26964;DHT22;14521;48.148;-1.656;2024-01-27T11:51:39;18.30;86.40
26964;DHT22;14521;48.148;-1.656;2024-01-27T11:55:01;18.30;87.10
26964;DHT22;14521;48.148;-1.656;2024-01-27T11:58:23;18.40;87.20
26964;DHT22;14521;48.148;-1.656;2024-01-27T12:01:45;18.40;86.90
26964;DHT22;14521;48.148;-1.656;2024-01-27T12:05:08;18.40;86.70
26964;DHT22;14521;48.148;-1.656;2024-01-27T12:08:31;18.40;87.30
26964;DHT22;14521;48.148;-1.656;2024-01-27T12:11:53;18.50;87.40
26964;DHT22;14521;48.148;-1.656;2024-01-27T12:15:16;18.50;86.50
26964;DHT22;14521;48.148;-1.656;2024-01-27T12:18:42;18.40;86.80
26964;DHT22;14521;48.148;-1.656;2024-01-27T12:22:24;18.40;86.50
26964;DHT22;14521;48.148;-1.656;2024-01-27T12:25:55;18.40;86.50
26964;DHT22;14521;48.148;-1.656;2024-01-27T12:29:20;18.40;86.10
26964;DHT22;14521;48.148;-1.656;2024-01-27T12:32:42;18.40;86.20
26964;DHT22;14521;48.148;-1.656;2024-01-27T12:36:07;18.40;86.00
26964;DHT22;14521;48.148;-1.656;2024-01-27T12:39:31;18.40;85.70
26964;DHT22;14521;48.148;-1.656;2024-01-27T12:42:53;18.40;85.70
26964;DHT22;14521;48.148;-1.656;2024-01-27T12:46:15;18.50;85.70
26964;DHT22;14521;48.148;-1.656;2024-01-27T12:49:39;18.60;86.90
26964;DHT22;14521;48.148;-1.656;2024-01-27T12:53:03;18.70;88.10
26964;DHT22;14521;48.148;-1.656;2024-01-27T12:56:25;18.90;88.70
26964;DHT22;14521;48.148;-1.656;2024-01-27T12:59:49;18.90;88.40
26964;DHT22;14521;48.148;-1.656;2024-01-27T13:03:11;19.00;88.50
26964;DHT22;14521;48.148;-1.656;2024-01-27T13:06:34;19.00;88.20
26964;DHT22;14521;48.148;-1.656;2024-01-27T13:09:56;19.00;88.20
26964;DHT22;14521;48.148;-1.656;2024-01-27T13:13:18;19.00;87.40
26964;DHT22;14521;48.148;-1.656;2024-01-27T13:16:41;19.00;88.20
26964;DHT22;14521;48.148;-1.656;2024-01-27T13:20:03;19.00;88.70
26964;DHT22;14521;48.148;-1.656;2024-01-27T13:23:27;19.00;87.40
26964;DHT22;14521;48.148;-1.656;2024-01-27T13:26:49;19.00;86.90
26964;DHT22;14521;48.148;-1.656;2024-01-27T13:30:12;19.00;86.60
26964;DHT22;14521;48.148;-1.656;2024-01-27T13:33:34;19.00;86.40
26964;DHT22;14521;48.148;-1.656;2024-01-27T13:36:57;19.00;87.10
26964;DHT22;14521;48.148;-1.656;2024-01-27T13:40:20;18.80;85.50
26964;DHT22;14521;48.148;-1.656;2024-01-27T13:43:44;18.50;86.40
26964;DHT22;14521;48.148;-1.656;2024-01-27T13:47:07;18.50;87.30
26964;DHT22;14521;48.148;-1.656;2024-01-27T13:50:31;18.50;87.70
26964;DHT22;14521;48.148;-1.656;2024-01-27T13:53:54;18.40;88.00
26964;DHT22;14521;48.148;-1.656;2024-01-27T13:57:16;18.40;89.10
26964;DHT22;14521;48.148;-1.656;2024-01-27T14:00:39;18.30;89.10
26964;DHT22;14521;48.148;-1.656;2024-01-27T14:04:01;18.30;89.20
26964;DHT22;14521;48.148;-1.656;2024-01-27T14:07:23;18.30;89.80
26964;DHT22;14521;48.148;-1.656;2024-01-27T14:10:46;18.30;90.10
26964;DHT22;14521;48.148;-1.656;2024-01-27T14:14:10;18.30;89.60
26964;DHT22;14521;48.148;-1.656;2024-01-27T14:17:33;18.30;90.10
26964;DHT22;14521;48.148;-1.656;2024-01-27T14:20:57;18.40;90.60
26964;DHT22;14521;48.148;-1.656;2024-01-27T14:24:19;18.50;90.20
26964;DHT22;14521;48.148;-1.656;2024-01-27T14:27:42;18.70;89.90
26964;DHT22;14521;48.148;-1.656;2024-01-27T14:31:04;18.70;89.40
26964;DHT22;14521;48.148;-1.656;2024-01-27T14:34:28;18.80;89.20
26964;DHT22;14521;48.148;-1.656;2024-01-27T14:37:51;18.80;90.00
26964;DHT22;14521;48.148;-1.656;2024-01-27T14:41:14;18.80;90.10
26964;DHT22;14521;48.148;-1.656;2024-01-27T14:44:36;18.90;90.10
26964;DHT22;14521;48.148;-1.656;2024-01-27T14:47:58;18.80;89.80
26964;DHT22;14521;48.148;-1.656;2024-01-27T14:51:25;18.80;89.90
26964;DHT22;14521;48.148;-1.656;2024-01-27T14:54:47;18.80;89.90
26964;DHT22;14521;48.148;-1.656;2024-01-27T14:58:10;18.80;90.00
26964;DHT22;14521;48.148;-1.656;2024-01-27T15:01:33;18.70;87.80
26964;DHT22;14521;48.148;-1.656;2024-01-27T15:04:55;18.70;89.30
26964;DHT22;14521;48.148;-1.656;2024-01-27T15:08:17;18.70;85.80
26964;DHT22;14521;48.148;-1.656;2024-01-27T15:11:39;18.60;89.20
26964;DHT22;14521;48.148;-1.656;2024-01-27T15:15:02;18.50;89.30
26964;DHT22;14521;48.148;-1.656;2024-01-27T15:18:24;18.60;89.40
26964;DHT22;14521;48.148;-1.656;2024-01-27T15:21:47;18.60;89.60
26964;DHT22;14521;48.148;-1.656;2024-01-27T15:25:09;18.60;89.50
26964;DHT22;14521;48.148;-1.656;2024-01-27T15:28:31;18.60;89.10
26964;DHT22;14521;48.148;-1.656;2024-01-27T15:31:54;18.70;89.20
26964;DHT22;14521;48.148;-1.656;2024-01-27T15:35:16;18.70;89.20
26964;DHT22;14521;48.148;-1.656;2024-01-27T15:38:38;18.70;89.10
26964;DHT22;14521;48.148;-1.656;2024-01-27T15:42:00;18.70;88.90
26964;DHT22;14521;48.148;-1.656;2024-01-27T15:45:25;18.70;89.70
26964;DHT22;14521;48.148;-1.656;2024-01-27T15:48:49;18.70;87.40
26964;DHT22;14521;48.148;-1.656;2024-01-27T15:52:11;18.70;88.90
26964;DHT22;14521;48.148;-1.656;2024-01-27T15:55:35;18.60;89.00
26964;DHT22;14521;48.148;-1.656;2024-01-27T15:58:57;18.60;88.80
26964;DHT22;14521;48.148;-1.656;2024-01-27T16:02:22;18.60;88.80
26964;DHT22;14521;48.148;-1.656;2024-01-27T16:05:45;18.60;89.60
26964;DHT22;14521;48.148;-1.656;2024-01-27T16:09:07;18.50;88.40
26964;DHT22;14521;48.148;-1.656;2024-01-27T16:12:31;18.50;88.40
26964;DHT22;14521;48.148;-1.656;2024-01-27T16:15:53;18.50;88.30
26964;DHT22;14521;48.148;-1.656;2024-01-27T16:19:15;18.50;88.20
26964;DHT22;14521;48.148;-1.656;2024-01-27T16:22:38;18.50;88.10
26964;DHT22;14521;48.148;-1.656;2024-01-27T16:26:00;18.50;88.80
26964;DHT22;14521;48.148;-1.656;2024-01-27T16:29:22;18.50;88.00
26964;DHT22;14521;48.148;-1.656;2024-01-27T16:32:45;18.50;87.90
26964;DHT22;14521;48.148;-1.656;2024-01-27T16:36:07;18.40;87.70
26964;DHT22;14521;48.148;-1.656;2024-01-27T16:39:30;18.50;88.50
26964;DHT22;14521;48.148;-1.656;2024-01-27T16:42:52;18.40;87.50
26964;DHT22;14521;48.148;-1.656;2024-01-27T16:46:14;18.40;87.50
26964;DHT22;14521;48.148;-1.656;2024-01-27T16:49:37;18.40;87.30
26964;DHT22;14521;48.148;-1.656;2024-01-27T16:52:59;18.40;87.30
26964;DHT22;14521;48.148;-1.656;2024-01-27T16:56:21;18.30;87.10
26964;DHT22;14521;48.148;-1.656;2024-01-27T16:59:45;18.40;87.00
26964;DHT22;14521;48.148;-1.656;2024-01-27T17:03:08;18.30;87.10
26964;DHT22;14521;48.148;-1.656;2024-01-27T17:06:30;18.30;87.40
26964;DHT22;14521;48.148;-1.656;2024-01-27T17:09:52;18.30;86.70
26964;DHT22;14521;48.148;-1.656;2024-01-27T17:13:15;18.30;86.80
26964;DHT22;14521;48.148;-1.656;2024-01-27T17:16:37;18.30;86.60
26964;DHT22;14521;48.148;-1.656;2024-01-27T17:20:00;18.40;86.50
26964;DHT22;14521;48.148;-1.656;2024-01-27T17:23:23;18.30;86.60
26964;DHT22;14521;48.148;-1.656;2024-01-27T17:26:52;18.30;86.40
26964;DHT22;14521;48.148;-1.656;2024-01-27T17:30:14;18.40;86.50
26964;DHT22;14521;48.148;-1.656;2024-01-27T17:33:37;18.40;86.20
26964;DHT22;14521;48.148;-1.656;2024-01-27T17:37:01;18.40;85.90
26964;DHT22;14521;48.148;-1.656;2024-01-27T17:40:23;18.40;85.90
26964;DHT22;14521;48.148;-1.656;2024-01-27T17:43:45;18.40;85.80
26964;DHT22;14521;48.148;-1.656;2024-01-27T17:47:08;18.50;85.90
26964;DHT22;14521;48.148;-1.656;2024-01-27T17:50:30;18.40;85.60
26964;DHT22;14521;48.148;-1.656;2024-01-27T17:53:52;18.50;85.60
26964;DHT22;14521;48.148;-1.656;2024-01-27T17:57:16;18.50;85.40
26964;DHT22;14521;48.148;-1.656;2024-01-27T18:00:38;18.50;85.50
26964;DHT22;14521;48.148;-1.656;2024-01-27T18:04:00;18.50;85.30
26964;DHT22;14521;48.148;-1.656;2024-01-27T18:07:23;18.50;85.30
26964;DHT22;14521;48.148;-1.656;2024-01-27T18:10:45;18.50;85.20
26964;DHT22;14521;48.148;-1.656;2024-01-27T18:14:07;18.50;85.20
26964;DHT22;14521;48.148;-1.656;2024-01-27T18:17:29;18.50;85.00
26964;DHT22;14521;48.148;-1.656;2024-01-27T18:20:52;18.50;85.00
26964;DHT22;14521;48.148;-1.656;2024-01-27T18:24:14;18.60;85.00
26964;DHT22;14521;48.148;-1.656;2024-01-27T18:27:39;18.60;85.00
26964;DHT22;14521;48.148;-1.656;2024-01-27T18:31:05;18.60;84.90
26964;DHT22;14521;48.148;-1.656;2024-01-27T18:34:27;18.50;84.80
26964;DHT22;14521;48.148;-1.656;2024-01-27T18:37:49;18.60;84.80
26964;DHT22;14521;48.148;-1.656;2024-01-27T18:41:12;18.60;84.80
26964;DHT22;14521;48.148;-1.656;2024-01-27T18:44:35;18.60;84.70
26964;DHT22;14521;48.148;-1.656;2024-01-27T18:48:00;18.60;84.80
26964;DHT22;14521;48.148;-1.656;2024-01-27T18:51:23;18.60;84.80
26964;DHT22;14521;48.148;-1.656;2024-01-27T18:54:45;18.60;85.50
26964;DHT22;14521;48.148;-1.656;2024-01-27T18:58:08;18.60;84.70
26964;DHT22;14521;48.148;-1.656;2024-01-27T19:01:31;18.50;84.60
26964;DHT22;14521;48.148;-1.656;2024-01-27T19:04:53;18.50;84.50
26964;DHT22;14521;48.148;-1.656;2024-01-27T19:08:17;18.50;84.50
26964;DHT22;14521;48.148;-1.656;2024-01-27T19:11:41;18.60;84.60
26964;DHT22;14521;48.148;-1.656;2024-01-27T19:15:04;18.50;84.40
26964;DHT22;14521;48.148;-1.656;2024-01-27T19:18:26;18.50;84.40
26964;DHT22;14521;48.148;-1.656;2024-01-27T19:21:49;18.50;84.30
26964;DHT22;14521;48.148;-1.656;2024-01-27T19:25:11;18.50;84.40
26964;DHT22;14521;48.148;-1.656;2024-01-27T19:28:34;18.50;84.30
26964;DHT22;14521;48.148;-1.656;2024-01-27T19:31:56;18.50;84.30
26964;DHT22;14521;48.148;-1.656;2024-01-27T19:35:18;18.50;84.30
26964;DHT22;14521;48.148;-1.656;2024-01-27T19:38:42;18.50;84.30
26964;DHT22;14521;48.148;-1.656;2024-01-27T19:42:05;18.50;84.20
26964;DHT22;14521;48.148;-1.656;2024-01-27T19:45:27;18.50;84.30
26964;DHT22;14521;48.148;-1.656;2024-01-27T19:48:50;18.50;84.30
26964;DHT22;14521;48.148;-1.656;2024-01-27T19:52:13;18.50;84.20
26964;DHT22;14521;48.148;-1.656;2024-01-27T19:55:36;18.50;84.20
26964;DHT22;14521;48.148;-1.656;2024-01-27T19:58:59;18.50;84.20
26964;DHT22;14521;48.148;-1.656;2024-01-27T20:02:21;18.50;84.20
26964;DHT22;14521;48.148;-1.656;2024-01-27T20:05:43;18.40;84.00
26964;DHT22;14521;48.148;-1.656;2024-01-27T20:09:05;18.50;84.10
26964;DHT22;14521;48.148;-1.656;2024-01-27T20:12:38;18.40;83.90
26964;DHT22;14521;48.148;-1.656;2024-01-27T20:16:02;18.50;83.90
26964;DHT22;14521;48.148;-1.656;2024-01-27T20:19:25;18.50;83.90
26964;DHT22;14521;48.148;-1.656;2024-01-27T20:22:47;18.50;84.00
26964;DHT22;14521;48.148;-1.656;2024-01-27T20:26:10;18.40;83.90
26964;DHT22;14521;48.148;-1.656;2024-01-27T20:29:32;18.40;83.90
26964;DHT22;14521;48.148;-1.656;2024-01-27T20:32:54;18.40;83.90
26964;DHT22;14521;48.148;-1.656;2024-01-27T20:36:20;18.40;83.90
26964;DHT22;14521;48.148;-1.656;2024-01-27T20:39:42;18.40;83.90
26964;DHT22;14521;48.148;-1.656;2024-01-27T20:43:06;18.40;83.80
26964;DHT22;14521;48.148;-1.656;2024-01-27T20:46:29;18.40;83.70
26964;DHT22;14521;48.148;-1.656;2024-01-27T20:49:51;18.40;83.70
26964;DHT22;14521;48.148;-1.656;2024-01-27T20:53:13;18.40;83.70
26964;DHT22;14521;48.148;-1.656;2024-01-27T20:56:36;18.40;83.60
26964;DHT22;14521;48.148;-1.656;2024-01-27T20:59:58;18.30;83.50
26964;DHT22;14521;48.148;-1.656;2024-01-27T21:03:21;18.30;83.50